Time;durP1;ratioP1;P1;durP2;ratioP2;P2;SDS_P1;SDS_P2;PMS_P1;PMS_P2;Temp;Humidity;BMP_temperature;BMP_pressure;BME280_temperature;BME280_humidity;BME280_pressure;Samples;Min_cycle;Max_cycle;Signal;HPM_P1;HPM_P2
2022/12/07 00:01:35;;;;;;;11.50;4.00;;;;;;;-143.48;91.59;118439.88;5034050;28;20022;-70
2022/12/07 00:04:05;;;;;;;10.60;4.43;;;;;;;-143.48;91.32;118439.88;5033513;28;20057;-70
2022/12/07 00:06:35;;;;;;;10.80;4.18;;;;;;;-143.48;90.94;118439.88;5033145;28;20512;-70
2022/12/07 00:09:00;;;;;;;11.68;4.07;;;;;;;-143.48;91.00;118439.88;5032449;28;20368;-70
2022/12/07 00:11:26;;;;;;;11.77;4.28;;;;;;;-143.48;90.89;118439.88;5030322;28;20029;-70
2022/12/07 00:13:56;;;;;;;16.42;4.55;;;;;;;-143.48;90.71;118439.88;5031839;28;20028;-70
2022/12/07 00:16:26;;;;;;;12.68;4.18;;;;;;;-143.48;90.36;118439.88;5030710;28;20029;-70
2022/12/07 00:18:51;;;;;;;11.45;4.03;;;;;;;-143.48;90.50;118439.88;5036464;28;20025;-69
2022/12/07 00:21:18;;;;;;;9.55;3.40;;;;;;;-143.48;90.48;118439.88;5031861;28;20033;-70
2022/12/07 00:23:46;;;;;;;8.00;3.53;;;;;;;-143.48;89.88;118439.88;5031033;28;20392;-70
2022/12/07 00:26:20;;;;;;;8.20;3.60;;;;;;;-143.48;89.91;118439.88;5033228;28;20496;-70
2022/12/07 00:28:54;;;;;;;7.60;3.42;;;;;;;-143.48;89.68;118439.88;5034868;28;20408;-70
2022/12/07 00:31:24;;;;;;;9.02;3.33;;;;;;;-143.48;89.54;118439.88;5036837;28;20029;-70
2022/12/07 00:33:50;;;;;;;9.35;3.28;;;;;;;-143.48;89.41;118439.88;5036607;28;20502;-70
2022/12/07 00:36:19;;;;;;;11.50;3.50;;;;;;;-143.48;89.72;118439.88;5036364;28;20493;-70
2022/12/07 00:38:44;;;;;;;10.00;3.53;;;;;;;-143.48;89.32;118439.88;5036573;28;20021;-71
2022/12/07 00:41:15;;;;;;;10.30;3.25;;;;;;;-143.48;89.10;118439.88;5036454;28;20072;-70
2022/12/07 00:43:42;;;;;;;7.50;3.13;;;;;;;-143.48;89.16;118439.88;5036651;28;20029;-69
2022/12/07 00:46:08;;;;;;;8.00;2.72;;;;;;;-143.48;88.46;118439.88;5035913;28;20028;-70
2022/12/07 00:48:33;;;;;;;9.60;3.25;;;;;;;-143.48;88.95;118439.88;5036458;28;20112;-69
2022/12/07 00:50:59;;;;;;;7.53;3.13;;;;;;;-143.48;89.00;118439.88;5036335;28;20033;-69
2022/12/07 00:53:24;;;;;;;11.88;3.53;;;;;;;-143.48;88.45;118439.88;5036454;28;20167;-70
2022/12/07 00:55:49;;;;;;;7.35;3.03;;;;;;;-143.48;89.06;118439.88;5035959;28;20128;-69
2022/12/07 00:58:15;;;;;;;9.38;3.22;;;;;;;-143.48;89.60;118439.88;5036262;28;20457;-69
2022/12/07 01:00:42;;;;;;;9.07;2.90;;;;;;;-143.48;89.12;118439.88;5036121;28;20351;-69
2022/12/07 01:03:10;;;;;;;10.63;3.38;;;;;;;-143.48;89.22;118439.88;5036297;28;20026;-69
2022/12/07 01:05:35;;;;;;;10.23;2.78;;;;;;;-143.48;88.55;118439.88;5036061;28;20477;-69
2022/12/07 01:08:01;;;;;;;6.43;2.65;;;;;;;-143.48;89.04;118439.88;5035785;28;20112;-69
2022/12/07 01:10:26;;;;;;;10.65;3.47;;;;;;;-143.48;88.63;118439.88;5036217;28;20026;-69
2022/12/07 01:12:52;;;;;;;8.20;3.08;;;;;;;-143.48;88.79;118439.88;5034581;28;20465;-69
2022/12/07 01:15:17;;;;;;;10.80;3.00;;;;;;;-143.48;88.83;118439.88;5036048;28;20501;-69
2022/12/07 01:17:43;;;;;;;9.48;2.80;;;;;;;-143.48;88.71;118439.88;5035912;28;20033;-69
2022/12/07 01:20:09;;;;;;;5.47;2.60;;;;;;;-143.48;88.49;118439.88;5035251;28;20413;-69
2022/12/07 01:22:39;;;;;;;11.73;2.88;;;;;;;-143.48;88.70;118439.88;5034509;28;20053;-69
2022/12/07 01:25:09;;;;;;;12.25;2.80;;;;;;;-143.48;88.35;118439.88;5036171;28;20029;-69
2022/12/07 01:27:35;;;;;;;13.23;3.20;;;;;;;-143.48;88.74;118439.88;5035376;28;20347;-69
2022/12/07 01:30:01;;;;;;;7.45;2.50;;;;;;;-143.48;89.20;118439.88;5034933;28;20557;-68
2022/12/07 01:32:26;;;;;;;6.78;2.60;;;;;;;-143.48;88.65;118439.88;5034355;28;20104;-69
2022/12/07 01:34:52;;;;;;;10.82;2.70;;;;;;;-143.48;89.12;118439.88;5032795;28;20029;-69
2022/12/07 01:37:17;;;;;;;7.05;2.45;;;;;;;-143.48;88.76;118439.88;5035394;28;20036;-68
2022/12/07 01:39:42;;;;;;;6.55;2.60;;;;;;;-143.48;88.63;118439.88;5034709;28;20424;-68
2022/12/07 01:42:12;;;;;;;7.40;2.40;;;;;;;-143.48;88.29;118439.88;5035513;28;20104;-70
2022/12/07 01:45:31;;;;;;;6.55;2.42;;;;;;;-143.48;88.92;118439.88;5035380;28;20056;-69
2022/12/07 01:47:57;;;;;;;8.13;2.80;;;;;;;-143.48;89.70;118439.88;5035016;28;20032;-69
2022/12/07 01:50:26;;;;;;;12.35;3.00;;;;;;;-143.48;89.61;118439.88;5033835;28;20393;-69
2022/12/07 01:52:54;;;;;;;9.25;2.90;;;;;;;-143.48;90.19;118439.88;5040885;28;20021;-69
2022/12/07 01:55:20;;;;;;;4.88;2.33;;;;;;;-143.48;89.22;118439.88;5035152;28;20022;-69
2022/12/07 01:57:49;;;;;;;10.30;2.47;;;;;;;-143.48;88.80;118439.88;5035134;28;20032;-69
2022/12/07 02:00:16;;;;;;;11.73;2.67;;;;;;;-143.48;88.48;118439.88;5035365;28;20027;-69
2022/12/07 02:02:45;;;;;;;4.97;1.90;;;;;;;-143.48;88.56;118439.88;5035174;28;20041;-69
2022/12/07 02:05:11;;;;;;;10.75;2.33;;;;;;;-143.48;88.80;118439.88;5035299;28;20075;-69
2022/12/07 02:07:38;;;;;;;6.15;1.70;;;;;;;-143.48;88.55;118439.88;5034818;28;20100;-69
2022/12/07 02:10:21;;;;;;;5.78;1.60;;;;;;;-143.48;88.56;118439.88;5034923;28;20093;-69
2022/12/07 02:12:50;;;;;;;11.13;2.42;;;;;;;-143.48;88.54;118439.88;5034827;28;20033;-69
2022/12/07 02:15:17;;;;;;;10.98;2.10;;;;;;;-143.48;88.46;118439.88;5034945;28;20049;-69
2022/12/07 02:18:10;;;;;;;9.52;1.85;;;;;;;-143.48;88.52;118439.88;5033595;28;20346;-69
2022/12/07 02:21:05;;;;;;;8.75;2.00;;;;;;;-143.48;88.78;118439.88;5034658;28;20025;-69
2022/12/07 02:23:56;;;;;;;5.65;1.90;;;;;;;-143.48;88.68;118439.88;5034931;28;20017;-69
2022/12/07 02:26:48;;;;;;;5.30;1.92;;;;;;;-143.48;88.97;118439.88;5033563;28;20124;-69
2022/12/07 02:29:44;;;;;;;10.00;2.00;;;;;;;-143.48;88.52;118439.88;5034906;28;20097;-69
2022/12/07 02:32:20;;;;;;;6.40;1.50;;;;;;;-143.48;88.56;118439.88;5034849;28;20099;-69
2022/12/07 02:35:21;;;;;;;6.70;1.70;;;;;;;-143.48;88.38;118439.88;5035027;28;20026;-69
2022/12/07 02:37:49;;;;;;;5.90;1.52;;;;;;;-143.48;88.69;118439.88;5034004;28;20492;-69
2022/12/07 02:40:28;;;;;;;9.25;1.73;;;;;;;-143.48;89.99;118439.88;5035715;28;20417;-69
2022/12/07 02:43:02;;;;;;;5.07;1.70;;;;;;;-143.48;89.50;118439.88;5035498;28;20026;-69
2022/12/07 02:45:30;;;;;;;6.10;1.63;;;;;;;-143.48;89.35;118439.88;5036161;28;20374;-69
2022/12/07 02:47:59;;;;;;;6.38;1.48;;;;;;;-143.48;89.22;118439.88;5035308;28;20120;-69
2022/12/07 02:50:24;;;;;;;7.18;1.75;;;;;;;-143.48;90.31;118439.88;5038558;28;20116;-69
2022/12/07 02:52:49;;;;;;;9.05;1.90;;;;;;;-143.48;89.99;118439.88;5044200;28;20041;-69
2022/12/07 02:55:19;;;;;;;11.82;1.98;;;;;;;-143.48;89.26;118439.88;5045436;28;20033;-69
2022/12/07 02:58:15;;;;;;;5.20;1.85;;;;;;;-143.48;89.17;118439.88;5046394;28;20036;-70
2022/12/07 03:00:52;;;;;;;8.00;1.77;;;;;;;-143.48;89.53;118439.88;5046179;28;20021;-70
2022/12/07 03:03:18;;;;;;;7.97;1.70;;;;;;;-143.48;89.14;118439.88;5047304;28;20021;-70
2022/12/07 03:06:05;;;;;;;11.85;2.42;;;;;;;-143.48;89.25;118439.88;5048043;28;20030;-71
2022/12/07 03:08:38;;;;;;;6.45;1.90;;;;;;;-143.48;89.91;118439.88;5047073;28;20016;-70
2022/12/07 03:11:08;;;;;;;9.73;1.80;;;;;;;-143.48;89.47;118439.88;5048795;28;20036;-70
2022/12/07 03:13:41;;;;;;;4.72;1.42;;;;;;;-143.48;89.16;118439.88;5049445;28;20020;-70
2022/12/07 03:16:16;;;;;;;7.82;1.80;;;;;;;-143.48;90.12;118439.88;5054265;28;20026;-70
2022/12/07 03:18:54;;;;;;;4.80;1.63;;;;;;;-143.48;89.47;118439.88;5054253;28;20032;-70
2022/12/07 03:21:24;;;;;;;7.65;1.75;;;;;;;-143.48;88.87;118439.88;5054948;28;20021;-72
2022/12/07 03:23:55;;;;;;;4.45;1.73;;;;;;;-143.48;88.82;118439.88;5054291;28;20052;-71
2022/12/07 03:26:28;;;;;;;5.95;1.50;;;;;;;-143.48;89.57;118439.88;5055091;28;20009;-71
2022/12/07 03:28:58;;;;;;;5.38;1.75;;;;;;;-143.48;89.36;118439.88;5053015;28;20037;-69
2022/12/07 03:31:31;;;;;;;5.68;1.67;;;;;;;-143.48;89.23;118439.88;5039683;28;20021;-71
2022/12/07 03:34:03;;;;;;;7.70;1.67;;;;;;;-143.48;88.87;118439.88;5037974;28;20033;-69
2022/12/07 03:36:48;;;;;;;4.57;1.80;;;;;;;-143.48;89.54;118439.88;5037037;28;20032;-69
2022/12/07 03:39:34;;;;;;;5.72;1.90;;;;;;;-143.48;90.38;118439.88;5035593;28;20096;-70
2022/12/07 03:42:03;;;;;;;5.63;1.40;;;;;;;-143.48;90.22;118439.88;5035008;28;20045;-69
2022/12/07 03:44:29;;;;;;;4.80;1.63;;;;;;;-143.48;89.82;118439.88;5036220;28;20461;-70
2022/12/07 03:47:01;;;;;;;9.80;2.03;;;;;;;-143.48;89.81;118439.88;5033980;28;20021;-70
2022/12/07 03:49:37;;;;;;;4.78;1.67;;;;;;;-143.48;90.60;118439.88;5034908;28;20032;-69
2022/12/07 03:52:32;;;;;;;8.73;1.67;;;;;;;-143.48;89.55;118439.88;5034380;28;20406;-69
2022/12/07 03:55:22;;;;;;;5.10;1.50;;;;;;;-143.48;90.06;118439.88;5033951;28;20122;-69
2022/12/07 03:57:51;;;;;;;5.72;1.58;;;;;;;-143.48;89.86;118439.88;4994464;28;20042;-72
2022/12/07 04:00:17;;;;;;;8.05;1.70;;;;;;;-143.48;89.68;118439.88;4994401;28;20022;-70
2022/12/07 04:02:43;;;;;;;4.68;1.30;;;;;;;-143.48;89.57;118439.88;4994939;28;20027;-69
2022/12/07 04:05:09;;;;;;;6.15;1.58;;;;;;;-143.48;89.20;118439.88;4996624;28;20026;-69
2022/12/07 04:07:34;;;;;;;7.38;1.85;;;;;;;-143.48;89.16;118439.88;4996553;28;20072;-69
2022/12/07 04:09:59;;;;;;;6.68;1.90;;;;;;;-143.48;89.02;118439.88;4997821;28;20101;-69
2022/12/07 04:12:25;;;;;;;7.72;2.03;;;;;;;-143.48;88.31;118439.88;4998102;28;20139;-70
2022/12/07 04:14:50;;;;;;;7.40;2.00;;;;;;;-143.48;88.97;118439.88;4996439;28;20011;-69
2022/12/07 04:17:16;;;;;;;8.05;2.03;;;;;;;-143.48;89.91;118439.88;4997537;28;20093;-70
2022/12/07 04:19:41;;;;;;;10.23;2.22;;;;;;;-143.48;90.25;118439.88;4996178;28;20105;-70
2022/12/07 04:22:07;;;;;;;9.32;1.98;;;;;;;-143.48;90.13;118439.88;4997520;28;20062;-70
2022/12/07 04:24:33;;;;;;;7.00;1.80;;;;;;;-143.48;90.25;118439.88;4997429;28;20497;-70
2022/12/07 04:26:59;;;;;;;11.77;1.30;;;;;;;-143.48;89.64;118439.88;4997329;28;20034;-70
2022/12/07 04:29:24;;;;;;;8.68;1.08;;;;;;;-143.48;89.36;118439.88;4996035;28;20110;-70
2022/12/07 04:31:50;;;;;;;5.97;1.42;;;;;;;-143.48;88.93;118439.88;4997971;28;20462;-70
2022/12/07 04:34:16;;;;;;;8.00;1.23;;;;;;;-143.48;89.29;118439.88;4997074;28;20037;-70
2022/12/07 04:36:43;;;;;;;3.30;1.05;;;;;;;-143.48;89.88;118439.88;4997254;28;20117;-71
2022/12/07 04:39:17;;;;;;;8.38;1.15;;;;;;;-143.48;89.14;118439.88;4995892;28;20394;-70
2022/12/07 04:41:43;;;;;;;5.05;1.10;;;;;;;-143.48;89.41;118439.88;4997368;28;20109;-70
2022/12/07 04:44:08;;;;;;;4.00;1.02;;;;;;;-143.48;90.07;118439.88;4997047;28;20062;-70
2022/12/07 04:46:33;;;;;;;5.05;1.33;;;;;;;-143.48;89.92;118439.88;4997118;28;20496;-70
2022/12/07 04:48:59;;;;;;;6.35;1.23;;;;;;;-143.48;89.69;118439.88;4995800;28;20030;-70
2022/12/07 04:51:27;;;;;;;9.85;1.35;;;;;;;-143.48;88.84;118439.88;4996851;28;20026;-69
2022/12/07 04:53:54;;;;;;;6.20;1.13;;;;;;;-143.48;89.08;118439.88;4996875;28;20029;-69
2022/12/07 04:56:19;;;;;;;5.30;1.10;;;;;;;-143.48;88.48;118439.88;5016223;28;20485;-70
2022/12/07 04:58:47;;;;;;;5.90;0.82;;;;;;;-143.48;88.81;118439.88;5035918;28;20032;-70
2022/12/07 05:01:13;;;;;;;9.10;1.25;;;;;;;-143.48;88.88;118439.88;5036060;28;20025;-70
2022/12/07 05:03:39;;;;;;;6.30;1.27;;;;;;;-143.48;88.55;118439.88;5041301;28;20112;-70
2022/12/07 05:06:06;;;;;;;7.38;1.35;;;;;;;-143.48;89.10;118439.88;5041212;28;20053;-71
2022/12/07 05:08:32;;;;;;;7.45;2.10;;;;;;;-143.48;89.30;118439.88;5041803;28;20021;-69
2022/12/07 05:10:58;;;;;;;9.18;2.55;;;;;;;-143.48;89.12;118439.88;5035130;28;20405;-68
2022/12/07 05:13:23;;;;;;;6.40;2.08;;;;;;;-143.48;89.38;118439.88;5034613;28;20060;-68
2022/12/07 05:15:49;;;;;;;9.32;2.28;;;;;;;-143.48;89.27;118439.88;5035068;28;20052;-69
2022/12/07 05:18:14;;;;;;;11.27;2.35;;;;;;;-143.48;89.21;118439.88;5036111;28;20369;-69
2022/12/07 05:20:40;;;;;;;12.95;2.30;;;;;;;-143.48;89.73;118439.88;5035873;28;20025;-69
2022/12/07 05:23:05;;;;;;;6.25;1.77;;;;;;;-143.48;89.89;118439.88;5035775;28;20025;-69
2022/12/07 05:25:31;;;;;;;3.67;1.73;;;;;;;-143.48;90.12;118439.88;5034449;28;20370;-69
2022/12/07 05:27:56;;;;;;;7.75;1.95;;;;;;;-143.48;89.97;118439.88;5035589;28;20481;-70
2022/12/07 05:30:25;;;;;;;7.38;1.92;;;;;;;-143.48;90.14;118439.88;5035977;28;20131;-69
2022/12/07 05:32:51;;;;;;;7.53;1.67;;;;;;;-143.48;90.10;118439.88;5035671;28;20029;-69
2022/12/07 05:35:18;;;;;;;7.47;1.98;;;;;;;-143.48;90.06;118439.88;5034279;28;20026;-71
2022/12/07 05:37:43;;;;;;;4.65;1.80;;;;;;;-143.48;90.39;118439.88;5035485;28;20485;-70
2022/12/07 05:40:09;;;;;;;13.65;2.10;;;;;;;-143.48;89.50;118439.88;5034312;28;20029;-69
2022/12/07 05:42:35;;;;;;;5.20;1.65;;;;;;;-143.48;89.89;118439.88;5035443;28;20032;-69
2022/12/07 05:45:00;;;;;;;6.72;1.60;;;;;;;-143.48;90.68;118439.88;5035623;28;20464;-69
2022/12/07 05:47:26;;;;;;;5.13;2.10;;;;;;;-143.48;90.77;118439.88;5035295;28;20018;-69
2022/12/07 05:49:51;;;;;;;4.68;1.42;;;;;;;-143.48;90.23;118439.88;5035105;28;20071;-69
2022/12/07 05:52:16;;;;;;;7.45;1.30;;;;;;;-143.48;90.18;118439.88;5035325;28;20017;-70
2022/12/07 05:54:42;;;;;;;10.77;1.80;;;;;;;-143.48;90.26;118439.88;5035290;28;20048;-69
2022/12/07 05:57:07;;;;;;;8.65;2.08;;;;;;;-143.48;89.60;118439.88;5035034;28;20048;-69
2022/12/07 05:59:33;;;;;;;6.80;1.67;;;;;;;-143.48;89.69;118439.88;5035136;28;20031;-69
2022/12/07 06:02:07;;;;;;;7.72;1.90;;;;;;;-143.48;89.31;118439.88;5034878;28;20080;-69
2022/12/07 06:04:36;;;;;;;7.35;2.00;;;;;;;-143.48;89.04;118439.88;5033787;28;20035;-69
2022/12/07 06:07:03;;;;;;;14.35;1.88;;;;;;;-143.48;88.35;118439.88;5035017;28;20021;-69
2022/12/07 06:09:29;;;;;;;6.80;1.70;;;;;;;-143.48;88.55;118439.88;5034752;28;20022;-69
2022/12/07 06:14:39;;;;;;;5.85;1.63;;;;;;;-143.48;88.51;118439.88;5035116;28;20041;-69
2022/12/07 06:17:05;;;;;;;10.10;1.40;;;;;;;-143.48;88.72;118439.88;5033552;28;20037;-69
2022/12/07 06:19:31;;;;;;;5.95;1.70;;;;;;;-143.48;88.95;118439.88;5034580;28;20026;-69
2022/12/07 06:21:57;;;;;;;9.15;1.63;;;;;;;-143.48;88.38;118439.88;5034522;28;20107;-69
2022/12/07 06:24:22;;;;;;;10.13;2.00;;;;;;;-143.48;88.00;118439.88;5047379;28;20081;-70
2022/12/07 06:26:48;;;;;;;6.63;1.38;;;;;;;-143.48;88.47;118439.88;5043323;28;20446;-69
2022/12/07 06:29:14;;;;;;;7.85;2.47;;;;;;;-143.48;87.98;118439.88;5034804;28;20025;-69
2022/12/07 06:31:39;;;;;;;10.88;2.40;;;;;;;-143.48;88.28;118439.88;5033678;28;20021;-69
2022/12/07 06:34:09;;;;;;;7.95;2.70;;;;;;;-143.48;88.56;118439.88;5035859;28;20411;-69
2022/12/07 06:36:34;;;;;;;11.10;2.58;;;;;;;-143.48;88.63;118439.88;5034720;28;20032;-70
2022/12/07 06:39:00;;;;;;;4.63;1.95;;;;;;;-143.48;89.22;118439.88;5034282;28;20025;-69
2022/12/07 06:41:25;;;;;;;6.82;2.03;;;;;;;-143.48;88.78;118439.88;5034474;28;20361;-69
2022/12/07 06:43:51;;;;;;;9.98;2.10;;;;;;;-143.48;88.05;118439.88;5034483;28;20370;-69
2022/12/07 06:46:16;;;;;;;8.23;1.92;;;;;;;-143.48;88.11;118439.88;5034106;28;20465;-69
2022/12/07 06:48:43;;;;;;;13.20;3.25;;;;;;;-143.48;89.24;118439.88;5034138;28;20025;-71
2022/12/07 06:51:09;;;;;;;17.67;2.15;;;;;;;-143.48;89.23;118439.88;5034165;28;20497;-68
2022/12/07 06:53:35;;;;;;;10.50;2.45;;;;;;;-143.48;88.59;118439.88;5034105;28;20025;-69
2022/12/07 06:56:00;;;;;;;8.32;2.10;;;;;;;-143.48;87.91;118439.88;5034149;28;20037;-69
2022/12/07 06:58:26;;;;;;;9.32;1.85;;;;;;;-143.48;87.91;118439.88;5032594;28;20342;-69
2022/12/07 07:00:51;;;;;;;11.52;2.00;;;;;;;-143.48;87.32;118439.88;5032674;28;20364;-70
2022/12/07 07:03:17;;;;;;;8.80;2.03;;;;;;;-143.48;87.01;118439.88;5034230;28;20489;-69
2022/12/07 07:05:43;;;;;;;9.48;2.85;;;;;;;-143.48;87.44;118439.88;5033947;28;20024;-69
2022/12/07 07:08:09;;;;;;;10.32;2.08;;;;;;;-143.48;87.83;118439.88;5032543;28;20060;-69
2022/12/07 07:10:35;;;;;;;10.32;2.20;;;;;;;-143.48;87.55;118439.88;5035282;28;20378;-70
2022/12/07 07:13:01;;;;;;;8.15;2.17;;;;;;;-143.48;87.21;118439.88;5035245;28;20095;-70
2022/12/07 07:15:26;;;;;;;10.52;2.90;;;;;;;-143.48;87.37;118439.88;5033869;28;20112;-70
2022/12/07 07:17:51;;;;;;;11.45;2.30;;;;;;;-143.48;87.02;118439.88;5033758;28;20033;-69
2022/12/07 07:20:17;;;;;;;6.30;2.25;;;;;;;-143.48;87.40;118439.88;5033384;28;20108;-69
2022/12/07 07:22:42;;;;;;;7.57;2.40;;;;;;;-143.48;87.36;118439.88;5032275;28;20108;-69
2022/12/07 07:25:08;;;;;;;10.82;3.00;;;;;;;-143.48;87.85;118439.88;5032425;28;20033;-69
2022/12/07 07:27:33;;;;;;;11.75;3.47;;;;;;;-143.48;87.54;118439.88;5033795;28;20144;-70
2022/12/07 07:29:58;;;;;;;11.57;3.00;;;;;;;-143.48;87.94;118439.88;5040951;28;20045;-70
2022/12/07 07:32:24;;;;;;;8.90;3.03;;;;;;;-143.48;87.28;118439.88;5039454;28;20416;-69
2022/12/07 07:34:49;;;;;;;9.85;2.75;;;;;;;-143.48;87.42;118439.88;5031988;28;20377;-69
2022/12/07 07:37:14;;;;;;;12.00;2.90;;;;;;;-143.48;87.75;118439.88;5030500;28;20025;-69
2022/12/07 07:39:40;;;;;;;13.32;3.22;;;;;;;-143.48;87.46;118439.88;5036569;28;20030;-70
2022/12/07 07:42:07;;;;;;;10.43;3.47;;;;;;;-143.48;87.50;118439.88;5035855;28;20040;-70
2022/12/07 07:44:33;;;;;;;10.63;3.40;;;;;;;-143.48;87.71;118439.88;5037197;28;20028;-70
2022/12/07 07:46:58;;;;;;;12.32;3.22;;;;;;;-143.48;87.52;118439.88;5039663;28;20414;-70
2022/12/07 07:49:23;;;;;;;8.30;2.78;;;;;;;-143.48;87.72;118439.88;5045640;28;20025;-70
2022/12/07 07:51:49;;;;;;;10.70;2.90;;;;;;;-143.48;88.64;118439.88;5038391;28;20039;-70
2022/12/07 07:54:14;;;;;;;8.00;2.60;;;;;;;-143.48;88.21;118439.88;5036152;28;20032;-70
2022/12/07 07:56:39;;;;;;;8.32;2.55;;;;;;;-143.48;87.64;118439.88;5037732;28;20074;-70
2022/12/07 07:59:04;;;;;;;7.65;2.45;;;;;;;-143.48;88.62;118439.88;5037510;28;20481;-70
2022/12/07 08:01:30;;;;;;;13.55;2.40;;;;;;;-143.48;87.33;118439.88;5037525;28;20060;-70
2022/12/07 08:03:55;;;;;;;8.18;2.67;;;;;;;-143.48;87.05;118439.88;5037933;28;20446;-70
2022/12/07 08:06:20;;;;;;;6.60;2.17;;;;;;;-143.48;86.26;118439.88;5037450;28;20584;-70
2022/12/07 08:08:46;;;;;;;7.30;2.30;;;;;;;-143.48;85.50;118439.88;5038259;28;20045;-71
2022/12/07 08:11:11;;;;;;;8.18;2.00;;;;;;;-143.48;86.55;118439.88;5037446;28;20026;-70
2022/12/07 08:13:37;;;;;;;9.48;2.72;;;;;;;-143.48;86.09;118439.88;5039379;28;20065;-70
2022/12/07 08:16:08;;;;;;;9.65;2.20;;;;;;;-143.48;86.39;118439.88;5038580;28;20056;-70
2022/12/07 08:18:40;;;;;;;15.10;2.65;;;;;;;-143.48;86.13;118439.88;5036081;28;20021;-70
2022/12/07 08:21:09;;;;;;;8.80;1.90;;;;;;;-143.48;85.98;118439.88;5037084;28;20465;-70
2022/12/07 08:23:34;;;;;;;8.82;2.10;;;;;;;-143.48;86.05;118439.88;5037044;28;20024;-70
2022/12/07 08:26:05;;;;;;;7.38;2.20;;;;;;;-143.48;86.06;118439.88;5037222;28;20021;-70
2022/12/07 08:28:31;;;;;;;7.72;2.30;;;;;;;-143.48;86.72;118439.88;5037051;28;20082;-70
2022/12/07 08:31:05;;;;;;;9.52;2.00;;;;;;;-143.48;86.75;118439.88;5036030;28;20457;-70
2022/12/07 08:33:30;;;;;;;6.80;2.33;;;;;;;-143.48;86.25;118439.88;5036739;28;20057;-70
2022/12/07 08:36:10;;;;;;;8.10;2.17;;;;;;;-143.48;86.64;118439.88;5036617;28;20119;-70
2022/12/07 08:38:36;;;;;;;10.38;2.00;;;;;;;-143.48;86.07;118439.88;5036894;28;20051;-71
2022/12/07 08:41:02;;;;;;;6.72;2.13;;;;;;;-143.48;86.65;118439.88;5034762;28;20397;-70
2022/12/07 08:43:27;;;;;;;7.18;2.33;;;;;;;-143.48;85.69;118439.88;5036746;28;20021;-70
2022/12/07 08:46:16;;;;;;;11.68;3.15;;;;;;;-143.48;85.12;118439.88;5036689;28;20041;-70
2022/12/07 08:48:49;;;;;;;9.38;2.53;;;;;;;-143.48;85.88;118439.88;5035125;28;20057;-70
2022/12/07 08:51:14;;;;;;;;;;;;;;;-143.48;85.41;118439.88;5035723;28;20382;-70
2022/12/07 08:53:40;;;;;;;15.70;2.08;;;;;;;-143.48;85.75;118439.88;5036622;28;20004;-70
2022/12/07 08:56:06;;;;;;;4.43;1.80;;;;;;;-143.48;86.03;118439.88;5036617;28;20064;-70
2022/12/07 08:58:33;;;;;;;6.70;1.70;;;;;;;-143.48;86.40;118439.88;5036427;28;20029;-70
2022/12/07 09:00:59;;;;;;;6.13;1.95;;;;;;;-143.48;86.17;118439.88;5036421;28;20032;-70
2022/12/07 09:03:24;;;;;;;10.55;2.22;;;;;;;-143.48;84.97;118439.88;5036447;28;20100;-70
2022/12/07 09:05:49;;;;;;;9.55;2.30;;;;;;;-143.48;84.18;118439.88;5036370;28;20059;-70
2022/12/07 09:08:15;;;;;;;6.68;2.17;;;;;;;-143.48;85.58;118439.88;5035202;28;20034;-70
2022/12/07 09:10:41;;;;;;;15.20;2.40;;;;;;;-143.48;84.98;118439.88;5036124;28;20029;-70
2022/12/07 09:13:06;;;;;;;8.05;2.20;;;;;;;-143.48;84.76;118439.88;5035818;28;20022;-70
2022/12/07 09:15:31;;;;;;;8.45;2.03;;;;;;;-143.48;85.93;118439.88;5036178;28;20029;-70
2022/12/07 09:17:57;;;;;;;5.90;1.65;;;;;;;-143.48;85.81;118439.88;5036121;28;20057;-70
2022/12/07 09:20:23;;;;;;;7.00;2.10;;;;;;;-143.48;85.24;118439.88;5036149;28;20026;-70
2022/12/07 09:22:48;;;;;;;10.18;2.10;;;;;;;-143.48;84.17;118439.88;5036728;28;20029;-70
2022/12/07 09:25:13;;;;;;;9.02;2.30;;;;;;;-143.48;84.00;118439.88;5036916;28;20056;-70
2022/12/07 09:27:39;;;;;;;8.65;2.40;;;;;;;-143.48;83.95;118439.88;5048394;28;20036;-70
2022/12/07 09:30:05;;;;;;;6.82;2.00;;;;;;;-143.48;83.43;118439.88;5037096;28;20457;-70
2022/12/07 09:32:31;;;;;;;6.25;1.80;;;;;;;-143.48;82.08;118439.88;5037948;28;20049;-70
2022/12/07 09:34:56;;;;;;;11.73;2.20;;;;;;;-143.48;82.54;118439.88;5036323;28;20030;-70
2022/12/07 09:37:21;;;;;;;7.07;1.73;;;;;;;-143.48;82.59;118439.88;5036583;28;20097;-71
2022/12/07 09:39:47;;;;;;;8.00;1.88;;;;;;;-143.48;81.81;118439.88;5036538;28;20064;-70
2022/12/07 09:42:28;;;;;;;6.22;2.30;;;;;;;-143.48;82.57;118439.88;5034922;28;20484;-70
2022/12/07 09:44:54;;;;;;;7.90;2.10;;;;;;;-143.48;82.13;118439.88;5034907;28;20025;-70
2022/12/07 09:47:19;;;;;;;7.57;2.70;;;;;;;-143.48;82.83;118439.88;5035812;28;20021;-70
2022/12/07 09:49:44;;;;;;;8.07;2.03;;;;;;;-143.48;82.46;118439.88;5035819;28;20108;-70
2022/12/07 09:52:25;;;;;;;7.07;2.30;;;;;;;-143.48;83.72;118439.88;5035811;28;20032;-70
2022/12/07 09:54:51;;;;;;;7.03;2.10;;;;;;;-143.48;83.12;118439.88;5035589;28;20132;-69
2022/12/07 09:57:17;;;;;;;6.70;2.10;;;;;;;-143.48;80.87;118439.88;5035591;28;20080;-69
2022/12/07 09:59:43;;;;;;;5.20;1.90;;;;;;;-143.48;81.35;118439.88;5034300;28;20025;-69
2022/12/07 10:02:28;;;;;;;4.68;1.83;;;;;;;-143.48;82.39;118439.88;5034857;28;20031;-69
2022/12/07 10:04:57;;;;;;;12.05;2.72;;;;;;;-143.48;82.16;118439.88;5035571;28;20454;-69
2022/12/07 10:07:22;;;;;;;8.70;2.10;;;;;;;-143.48;82.51;118439.88;5045157;28;20014;-70
2022/12/07 10:09:48;;;;;;;8.60;2.03;;;;;;;-143.48;83.03;118439.88;5048435;28;20079;-70
2022/12/07 10:12:13;;;;;;;8.30;2.15;;;;;;;-143.48;75.06;118439.88;5034131;28;20047;-69
2022/12/07 10:14:52;;;;;;;7.82;2.20;;;;;;;-143.48;51.93;118439.88;5031449;28;20485;-69
2022/12/07 10:17:31;;;;;;;7.72;2.00;;;;;;;-143.48;46.02;118439.88;5035792;28;20030;-69
2022/12/07 10:20:19;;;;;;;7.57;1.88;;;;;;;-143.48;44.54;118439.88;5035114;28;20079;-71
2022/12/07 10:22:56;;;;;;;8.38;2.10;;;;;;;-143.48;44.31;118439.88;5043365;28;20026;-69
2022/12/07 10:25:27;;;;;;;7.40;1.88;;;;;;;-143.48;44.20;118439.88;5035440;28;20021;-70
2022/12/07 10:28:07;;;;;;;6.28;2.00;;;;;;;-143.48;44.75;118439.88;5034732;28;20051;-70
2022/12/07 10:30:33;;;;;;;6.05;1.70;;;;;;;-143.48;49.66;118439.88;5032218;28;20029;-70
2022/12/07 10:32:59;;;;;;;5.68;1.73;;;;;;;-143.48;62.37;118439.88;5032243;28;20025;-69
2022/12/07 10:35:29;;;;;;;5.22;1.77;;;;;;;-143.48;68.24;118439.88;5031958;28;20041;-69
2022/12/07 10:37:58;;;;;;;6.97;2.17;;;;;;;-143.48;57.11;118439.88;5033441;28;20025;-69
2022/12/07 10:40:34;;;;;;;5.15;1.95;;;;;;;-143.48;48.33;118439.88;5033090;28;20427;-70
2022/12/07 10:43:11;;;;;;;6.18;1.90;;;;;;;-143.48;52.20;118439.88;5034322;28;20108;-71
2022/12/07 10:45:53;;;;;;;5.88;1.77;;;;;;;-143.48;60.75;118439.88;5034564;28;20500;-69
2022/12/07 10:48:35;;;;;;;7.22;1.83;;;;;;;-143.48;67.89;118439.88;5034525;28;20469;-69
2022/12/07 10:51:13;;;;;;;8.68;1.88;;;;;;;-143.48;70.97;118439.88;5034607;28;20060;-70
2022/12/07 10:53:52;;;;;;;5.25;1.45;;;;;;;-143.48;73.80;118439.88;5034125;28;20030;-70
2022/12/07 10:57:00;;;;;;;5.43;1.80;;;;;;;-143.48;74.59;118439.88;5035146;28;20060;-69
2022/12/07 11:00:01;;;;;;;6.15;1.70;;;;;;;-143.48;75.23;118439.88;4986068;28;20135;-70
2022/12/07 11:02:41;;;;;;;11.07;1.95;;;;;;;-143.48;75.50;118439.88;5020698;28;20042;-70
2022/12/07 11:05:19;;;;;;;9.32;1.65;;;;;;;-143.48;75.92;118439.88;5034073;28;20022;-70
2022/12/07 11:08:14;;;;;;;7.88;1.70;;;;;;;-143.48;75.75;118439.88;5033161;28;20029;-70
2022/12/07 11:11:11;;;;;;;7.72;1.70;;;;;;;-143.48;75.03;118439.88;5016915;28;20473;-70
2022/12/07 11:13:44;;;;;;;5.13;1.40;;;;;;;-143.48;74.65;118439.88;5033429;28;20491;-70
2022/12/07 11:16:18;;;;;;;6.75;1.45;;;;;;;-143.48;76.08;118439.88;5033054;28;20025;-70
2022/12/07 11:19:03;;;;;;;9.05;1.70;;;;;;;-143.48;74.83;118439.88;5033361;28;20111;-70
2022/12/07 11:21:54;;;;;;;7.57;1.98;;;;;;;-143.48;74.48;118439.88;5033426;28;20029;-70